Airfield :
LOGIN :

Register | Disclaimer

   EN    FR    IT 

 










Legend :    VFR   Marginal VFR   IFR   Intensive IFR   Very Intensive IFR
Visi :
Ceiling :
>= 8 km
>= 3000ft
5 to 8 km
1000 to 3000 ft
1500m to 5 km
500 to 1000 ft
800 to 1500m
200 to 500 ft
< 800m
< 200 ft
Symbols :   Thunderstorms  Fog  Heavy snow  Heavy precipitations  Wind > 20 kt
SIGMETs :     Misc.  Thunderstorms  Icing  Turbulence  Mountain Waves  Volcanic Ashes







- Airport Elevation : 33 ft
- IATA code : MHZ


EGUN - RAF Mildenhall

CURRENT METAR :
  • 240656Z 17003KT 9999 FEW200 22/22 A2982 RMK AO2A SLP101 T02210216 .

EXPIRED METARs :
  • 240556Z 14004KT 9999 CLR 21/21 A2981 RMK AO2A SLP097 60007 T02060206 10226 20194 58003 .
  • 240456Z 09006KT 9999 FEW050 SCT150 20/20 A2982 RMK AO2A LTG DSNT E RAE06 TSE12 SLP101 P0000 T01950195 .

TAF AMD TAF EGUN
Valid from the 24 at 05:00 until the 25 at 10:00 UTC


240535Z 2405/2510 19009KT 9999 BKN080 QNH2978INS
BECMG 2411/2412 26009KT 9999 SKC QNH2987INS
BECMG 2420/2421 VRB06KT 9999 FEW060 QNH2992INS TX30/2414Z TN20/2405Z
No reported NOTAMs for that airfield.
1 SIGMET reported for the London FIR (EGTT) :
 
Embedded thunderstorms and hail
EGTT SIGMET 03 VALID 240608/241000 EGRR
EGTT LONDON FIR EMBD TSGR FCST WI N5319 E00333 - N5133 E00202 - N5500 W00106 - N5500 E00137 - N5319 E00333 TOP FL380 MOV NE 35KT NC=



MET'MAP, your aeronautical weather chart ! - Copyright ORBIFLY December 2007 - Disclaimer

ORBIFLY MET'MAP TEAM :

Programming & Development : Alexandra Zaïnal
Concept & Development : Baudouin d'Aumeries
Co-Development & Prog : Marc-Olivier Méhu
Technical & hardware support : Manuel Goepfert

Contact : metmap@orbifly.com




SOURCES & CREDITS :

   NOAA